Time;durP1;ratioP1;P1;durP2;ratioP2;P2;SDS_P1;SDS_P2;PMS_P1;PMS_P2;Temp;Humidity;BMP_temperature;BMP_pressure;BME280_temperature;BME280_humidity;BME280_pressure;Samples;Min_cycle;Max_cycle;Signal;HPM_P1;HPM_P2
2024/01/03 00:00:25;;;;;;;0.00;0.00;;;10.90;81.80;;;;;;5008197;28;20116;-61
2024/01/03 00:02:52;;;;;;;0.15;0.10;;;11.00;82.00;;;;;;5005148;28;20052;-61
2024/01/03 00:05:27;;;;;;;0.10;0.00;;;10.90;82.00;;;;;;5008472;28;20463;-62
2024/01/03 00:07:52;;;;;;;0.30;0.10;;;11.00;82.20;;;;;;5006561;28;20120;-62
2024/01/03 00:10:46;;;;;;;0.35;0.10;;;10.90;82.10;;;;;;5008625;28;20121;-64
2024/01/03 00:13:32;;;;;;;0.20;0.20;;;10.90;82.30;;;;;;5009358;28;20034;-62
2024/01/03 00:16:04;;;;;;;0.25;0.08;;;10.90;82.10;;;;;;5003389;28;20044;-63
2024/01/03 00:18:34;;;;;;;0.52;0.20;;;10.90;81.90;;;;;;5008443;28;20052;-62
2024/01/03 00:21:00;;;;;;;0.40;0.30;;;11.00;82.00;;;;;;5003097;28;20184;-63
2024/01/03 00:23:37;;;;;;;0.90;0.10;;;11.00;81.80;;;;;;4998036;28;20461;-60
2024/01/03 00:26:06;;;;;;;0.80;0.10;;;11.00;81.70;;;;;;5002554;28;20096;-62
2024/01/03 00:28:32;;;;;;;0.10;0.10;;;11.00;81.70;;;;;;5003137;28;20069;-60
2024/01/03 00:30:59;;;;;;;0.90;0.10;;;11.00;81.50;;;;;;5004466;28;20037;-63
2024/01/03 00:33:24;;;;;;;0.30;0.10;;;11.00;81.50;;;;;;5005919;28;20037;-63
2024/01/03 00:35:51;;;;;;;0.73;0.10;;;10.90;81.50;;;;;;5001519;28;20030;-62
2024/01/03 00:38:17;;;;;;;1.23;0.10;;;10.90;81.50;;;;;;5002265;28;20379;-63
2024/01/03 00:40:55;;;;;;;1.02;0.10;;;10.90;81.50;;;;;;4997008;28;20036;-62
2024/01/03 00:43:21;;;;;;;0.13;0.10;;;10.90;81.60;;;;;;4995637;28;20124;-63
2024/01/03 00:45:48;;;;;;;0.00;0.00;;;10.90;81.70;;;;;;4996907;28;20492;-62
2024/01/03 00:48:15;;;;;;;0.28;0.10;;;10.90;81.70;;;;;;5000328;28;20125;-63
2024/01/03 00:50:41;;;;;;;0.35;0.10;;;10.90;81.90;;;;;;5000668;28;20034;-61
2024/01/03 00:53:07;;;;;;;0.10;0.10;;;10.90;82.00;;;;;;5000854;28;20026;-61
2024/01/03 00:55:34;;;;;;;0.10;0.00;;;10.80;82.20;;;;;;5001559;28;20033;-62
2024/01/03 00:57:59;;;;;;;0.38;0.10;;;10.80;82.20;;;;;;5001969;28;20065;-63
2024/01/03 01:00:25;;;;;;;1.08;0.10;;;10.80;82.50;;;;;;5001767;28;20493;-61
2024/01/03 01:02:51;;;;;;;0.28;0.10;;;10.80;82.50;;;;;;5001078;28;20030;-62
2024/01/03 01:05:17;;;;;;;0.65;0.10;;;10.80;82.60;;;;;;5000292;28;20286;-63
2024/01/03 01:07:42;;;;;;;0.65;0.08;;;10.80;82.90;;;;;;5000835;28;20046;-63
2024/01/03 01:10:08;;;;;;;0.10;0.10;;;10.70;83.10;;;;;;4999862;28;20030;-63
2024/01/03 01:12:34;;;;;;;0.10;0.10;;;10.70;83.10;;;;;;5001498;28;20058;-64
2024/01/03 01:15:00;;;;;;;0.10;0.00;;;10.70;83.30;;;;;;5002640;28;20041;-62
2024/01/03 01:17:26;;;;;;;0.10;0.00;;;10.70;83.50;;;;;;5003385;28;20437;-63
2024/01/03 01:19:52;;;;;;;0.00;0.00;;;10.70;83.60;;;;;;4994772;28;20035;-62
2024/01/03 01:22:18;;;;;;;0.10;0.10;;;10.70;83.90;;;;;;4998765;28;20038;-62
2024/01/03 01:24:43;;;;;;;0.98;0.10;;;10.60;84.20;;;;;;5003950;28;20041;-61
2024/01/03 01:27:09;;;;;;;0.22;0.10;;;10.60;84.10;;;;;;4998957;28;20100;-62
2024/01/03 01:29:34;;;;;;;0.47;0.10;;;10.60;84.10;;;;;;4997569;28;20037;-62
2024/01/03 01:32:00;;;;;;;0.10;0.10;;;10.60;84.20;;;;;;5001836;28;20630;-64
2024/01/03 01:34:26;;;;;;;2.08;0.20;;;10.60;84.30;;;;;;5001357;28;20038;-62
2024/01/03 01:36:51;;;;;;;0.10;0.10;;;10.60;84.30;;;;;;5003116;28;20049;-63
2024/01/03 01:39:17;;;;;;;0.10;0.08;;;10.60;84.40;;;;;;5000749;28;20445;-62
2024/01/03 01:41:43;;;;;;;0.20;0.05;;;10.60;84.40;;;;;;4999683;28;20041;-62
2024/01/03 01:44:09;;;;;;;0.10;0.10;;;10.60;84.50;;;;;;5001819;28;20402;-62
2024/01/03 01:46:36;;;;;;;1.55;0.10;;;10.60;84.70;;;;;;4998104;28;20038;-61
2024/01/03 01:49:04;;;;;;;0.30;0.10;;;10.60;84.60;;;;;;5000384;28;20084;-63
2024/01/03 01:51:30;;;;;;;0.17;0.10;;;10.60;84.50;;;;;;4996760;28;20022;-60
2024/01/03 01:53:56;;;;;;;0.20;0.05;;;10.60;84.30;;;;;;4996969;28;20061;-62
2024/01/03 01:56:22;;;;;;;0.40;0.10;;;10.60;84.30;;;;;;5000565;28;20042;-62
2024/01/03 01:58:50;;;;;;;0.73;0.10;;;10.60;84.30;;;;;;5002386;28;20049;-63
2024/01/03 02:01:17;;;;;;;0.20;0.10;;;10.60;84.30;;;;;;5001376;28;20134;-62
2024/01/03 02:03:43;;;;;;;0.38;0.10;;;10.60;84.30;;;;;;5003822;28;20068;-62
2024/01/03 02:06:09;;;;;;;0.85;0.10;;;10.60;84.50;;;;;;5005895;28;20038;-62
2024/01/03 02:08:36;;;;;;;0.10;0.10;;;10.60;84.60;;;;;;5001181;28;20591;-63
2024/01/03 02:11:03;;;;;;;0.70;0.20;;;10.60;84.70;;;;;;4996633;28;20036;-61
2024/01/03 02:13:29;;;;;;;0.50;0.10;;;10.60;84.60;;;;;;5004445;28;20030;-62
2024/01/03 02:15:54;;;;;;;0.15;0.10;;;10.60;84.60;;;;;;5003153;28;20096;-63
2024/01/03 02:18:20;;;;;;;0.40;0.08;;;10.50;84.50;;;;;;5000889;28;20045;-61
2024/01/03 02:20:46;;;;;;;0.10;0.10;;;10.50;84.50;;;;;;5003703;28;20401;-60
2024/01/03 02:23:12;;;;;;;0.90;0.10;;;10.60;84.80;;;;;;5000059;28;20073;-62
2024/01/03 02:25:39;;;;;;;0.10;0.10;;;10.50;84.70;;;;;;4999014;28;20054;-64
2024/01/03 02:28:09;;;;;;;0.30;0.10;;;10.50;84.60;;;;;;5001865;28;20532;-61
2024/01/03 02:30:34;;;;;;;0.35;0.17;;;10.50;84.70;;;;;;4998971;28;20073;-61
2024/01/03 02:33:00;;;;;;;0.57;0.10;;;10.50;85.60;;;;;;4998875;28;20509;-62
2024/01/03 02:35:25;;;;;;;0.70;0.10;;;10.50;84.60;;;;;;5003717;28;20401;-61
2024/01/03 02:37:51;;;;;;;0.22;0.20;;;10.50;84.60;;;;;;5002364;28;20026;-62
2024/01/03 02:40:16;;;;;;;0.00;0.00;;;10.50;84.60;;;;;;5001755;28;20485;-62
2024/01/03 02:42:42;;;;;;;0.17;0.10;;;10.50;84.70;;;;;;5000749;28;20112;-62
2024/01/03 02:45:08;;;;;;;2.10;0.10;;;10.50;84.60;;;;;;4998275;28;20039;-63
2024/01/03 02:47:33;;;;;;;0.35;0.10;;;10.50;84.70;;;;;;5002118;28;20038;-64
2024/01/03 02:49:59;;;;;;;0.20;0.10;;;10.50;84.60;;;;;;5000611;28;20496;-62
2024/01/03 02:52:28;;;;;;;0.50;0.10;;;10.40;84.50;;;;;;5000285;28;20041;-62
2024/01/03 02:54:53;;;;;;;0.05;0.05;;;10.40;84.60;;;;;;5002141;28;20505;-60
2024/01/03 02:57:22;;;;;;;0.13;0.00;;;10.40;84.50;;;;;;5001227;28;20053;-62
2024/01/03 02:59:48;;;;;;;0.20;0.10;;;10.40;84.80;;;;;;5001403;28;20038;-62
2024/01/03 03:02:13;;;;;;;0.55;0.15;;;10.40;84.60;;;;;;5002360;28;20030;-61
2024/01/03 03:04:39;;;;;;;0.10;0.10;;;10.40;84.70;;;;;;5002021;28;20062;-62
2024/01/03 03:07:04;;;;;;;0.40;0.20;;;10.40;84.60;;;;;;5000876;28;20042;-62
2024/01/03 03:09:30;;;;;;;0.20;0.10;;;10.40;84.70;;;;;;5004196;28;20026;-62
2024/01/03 03:11:56;;;;;;;0.35;0.10;;;10.40;84.80;;;;;;5004071;28;20026;-62
2024/01/03 03:14:22;;;;;;;0.38;0.17;;;10.40;84.80;;;;;;4997884;28;20193;-62
2024/01/03 03:16:47;;;;;;;0.68;0.10;;;10.40;84.60;;;;;;4994634;28;20034;-64
2024/01/03 03:19:13;;;;;;;0.43;0.20;;;10.40;84.60;;;;;;5000480;28;20053;-63
2024/01/03 03:21:38;;;;;;;0.40;0.10;;;10.40;84.70;;;;;;5000858;28;20433;-63
2024/01/03 03:24:04;;;;;;;0.57;0.10;;;10.40;84.70;;;;;;4999921;28;20029;-62
2024/01/03 03:26:30;;;;;;;0.47;0.20;;;10.40;84.70;;;;;;4998574;28;20185;-62
2024/01/03 03:28:55;;;;;;;0.80;0.10;;;10.40;84.80;;;;;;4998920;28;20068;-62
2024/01/03 03:31:21;;;;;;;0.10;0.10;;;10.40;84.80;;;;;;5002647;28;20058;-63
2024/01/03 03:33:46;;;;;;;0.15;0.10;;;10.40;84.80;;;;;;5004402;28;20026;-62
2024/01/03 03:36:13;;;;;;;0.10;0.10;;;10.40;84.80;;;;;;5007635;28;20549;-61
2024/01/03 03:38:39;;;;;;;1.02;0.10;;;10.40;84.70;;;;;;5010597;28;20034;-62
2024/01/03 03:41:11;;;;;;;0.10;0.10;;;10.40;84.60;;;;;;5004648;28;20503;-62
2024/01/03 03:43:38;;;;;;;0.20;0.10;;;10.40;84.60;;;;;;5004058;28;20057;-61
2024/01/03 03:46:07;;;;;;;0.10;0.10;;;10.40;84.60;;;;;;5010199;28;20468;-62
2024/01/03 03:48:33;;;;;;;1.85;0.20;;;10.40;84.50;;;;;;5007087;28;20034;-62
2024/01/03 03:51:01;;;;;;;0.45;0.10;;;10.40;84.50;;;;;;5006670;28;20041;-62
2024/01/03 03:53:26;;;;;;;0.25;0.10;;;10.40;84.40;;;;;;5009127;28;20117;-62
2024/01/03 03:55:52;;;;;;;0.32;0.10;;;10.50;84.30;;;;;;5011739;28;20145;-62
2024/01/03 03:58:17;;;;;;;0.70;0.20;;;10.50;84.30;;;;;;5007126;28;20030;-62
2024/01/03 04:00:43;;;;;;;1.20;0.10;;;10.50;84.30;;;;;;5008060;28;20140;-60
2024/01/03 04:03:08;;;;;;;0.10;0.10;;;10.40;84.20;;;;;;5007237;28;20493;-63
2024/01/03 04:05:35;;;;;;;0.15;0.10;;;10.50;84.30;;;;;;5002523;28;20465;-62
2024/01/03 04:08:01;;;;;;;0.20;0.13;;;10.50;84.20;;;;;;5002883;28;20033;-63
2024/01/03 04:10:26;;;;;;;0.10;0.10;;;10.50;84.20;;;;;;5005690;28;20589;-63
2024/01/03 04:12:52;;;;;;;0.10;0.03;;;10.50;84.10;;;;;;5006411;28;20037;-64
2024/01/03 04:15:19;;;;;;;0.10;0.00;;;10.50;84.00;;;;;;5003650;28;20039;-63
2024/01/03 04:17:44;;;;;;;0.00;0.00;;;10.50;84.00;;;;;;5006284;28;20639;-63
2024/01/03 04:20:10;;;;;;;0.10;0.10;;;10.50;84.00;;;;;;5005176;28;20038;-63
2024/01/03 04:22:36;;;;;;;0.13;0.10;;;10.50;84.00;;;;;;5005641;28;20099;-61
2024/01/03 04:25:02;;;;;;;0.43;0.10;;;10.50;84.00;;;;;;5004850;28;20573;-60
2024/01/03 04:27:27;;;;;;;0.43;0.10;;;10.50;84.00;;;;;;5002788;28;20494;-63
2024/01/03 04:29:53;;;;;;;0.77;0.10;;;10.50;84.10;;;;;;5006342;28;20052;-63
2024/01/03 04:32:18;;;;;;;0.45;0.10;;;10.50;84.10;;;;;;5009867;28;20514;-62
2024/01/03 04:34:44;;;;;;;0.73;0.20;;;10.50;84.10;;;;;;5009164;28;20455;-60
2024/01/03 04:37:09;;;;;;;0.10;0.10;;;10.50;84.10;;;;;;5008572;28;20033;-61
2024/01/03 04:39:35;;;;;;;6.63;0.20;;;10.50;84.30;;;;;;5004961;28;20045;-62
2024/01/03 04:42:01;;;;;;;0.20;0.00;;;10.50;84.50;;;;;;5003756;28;20076;-63
2024/01/03 04:44:26;;;;;;;1.35;0.13;;;10.50;84.80;;;;;;4998440;28;20426;-61
2024/01/03 04:46:52;;;;;;;0.40;0.08;;;10.40;84.60;;;;;;5007971;28;20409;-62
2024/01/03 04:49:17;;;;;;;0.05;0.00;;;10.50;84.50;;;;;;5001634;28;20091;-62
2024/01/03 04:51:43;;;;;;;0.00;0.00;;;10.50;84.10;;;;;;4994696;28;20039;-61
2024/01/03 04:54:08;;;;;;;0.20;0.00;;;10.50;83.80;;;;;;5002049;28;20018;-60
2024/01/03 04:56:35;;;;;;;1.85;0.03;;;10.40;83.50;;;;;;5002100;28;20568;-62
2024/01/03 04:59:03;;;;;;;0.10;0.00;;;10.40;83.40;;;;;;5002373;28;20509;-63
2024/01/03 05:01:28;;;;;;;0.15;0.10;;;10.40;83.40;;;;;;5008010;28;20485;-63
2024/01/03 05:03:54;;;;;;;0.00;0.00;;;10.50;84.40;;;;;;5007420;28;20038;-62
2024/01/03 05:06:20;;;;;;;1.15;0.00;;;10.50;83.60;;;;;;5003640;28;20061;-62
2024/01/03 05:08:45;;;;;;;0.10;0.00;;;10.40;83.70;;;;;;5006477;28;20521;-62
2024/01/03 05:11:11;;;;;;;0.10;0.10;;;10.50;83.90;;;;;;5001286;28;20117;-61
2024/01/03 05:13:36;;;;;;;0.10;0.00;;;10.40;83.80;;;;;;5007369;28;20233;-62
2024/01/03 05:16:02;;;;;;;0.13;0.00;;;10.40;83.90;;;;;;5005644;28;20034;-61
2024/01/03 05:18:27;;;;;;;0.52;0.00;;;10.40;84.10;;;;;;5000544;28;20041;-63
2024/01/03 05:20:53;;;;;;;0.00;0.00;;;10.40;84.10;;;;;;5006303;28;20034;-64
2024/01/03 05:23:19;;;;;;;0.10;0.00;;;10.40;84.30;;;;;;5002906;28;20042;-62
2024/01/03 05:25:45;;;;;;;0.20;0.10;;;10.30;84.30;;;;;;5000745;28;20506;-62
2024/01/03 05:28:10;;;;;;;0.00;0.00;;;10.30;84.50;;;;;;5005133;28;20030;-62
2024/01/03 05:30:36;;;;;;;0.00;0.00;;;10.30;84.60;;;;;;4999543;28;20030;-61
2024/01/03 05:33:02;;;;;;;0.63;0.10;;;10.30;84.60;;;;;;5002937;28;20026;-62
2024/01/03 05:35:27;;;;;;;0.17;0.00;;;10.30;84.60;;;;;;5001133;28;20038;-63
2024/01/03 05:37:53;;;;;;;0.40;0.10;;;10.30;84.70;;;;;;5004385;28;20129;-61
2024/01/03 05:40:18;;;;;;;0.10;0.10;;;10.30;84.60;;;;;;5003380;28;20494;-60
2024/01/03 05:42:44;;;;;;;0.10;0.10;;;10.30;84.50;;;;;;5002283;28;20128;-61
2024/01/03 05:45:09;;;;;;;0.08;0.08;;;10.30;84.30;;;;;;5004963;28;20025;-62
2024/01/03 05:47:35;;;;;;;0.10;0.10;;;10.30;84.10;;;;;;5005433;28;20419;-62
2024/01/03 05:50:01;;;;;;;0.55;0.10;;;10.30;84.00;;;;;;5004167;28;20026;-63
2024/01/03 05:52:26;;;;;;;0.10;0.00;;;10.20;83.90;;;;;;5000477;28;20060;-60
2024/01/03 05:54:52;;;;;;;0.30;0.10;;;10.30;83.90;;;;;;5006726;28;20346;-62
2024/01/03 05:57:17;;;;;;;0.10;0.00;;;10.20;83.80;;;;;;5004114;28;20118;-61
2024/01/03 05:59:43;;;;;;;0.17;0.10;;;10.30;84.00;;;;;;4999797;28;20414;-60
2024/01/03 06:02:08;;;;;;;0.30;0.10;;;10.20;84.00;;;;;;5002630;28;20091;-62
2024/01/03 06:04:34;;;;;;;0.25;0.10;;;10.20;84.00;;;;;;5002384;28;20745;-61
2024/01/03 06:07:00;;;;;;;0.20;0.10;;;10.20;84.10;;;;;;5004930;28;20113;-62
2024/01/03 06:09:25;;;;;;;0.17;0.10;;;10.20;84.20;;;;;;4999916;28;20027;-62
2024/01/03 06:11:51;;;;;;;0.20;0.13;;;10.20;84.40;;;;;;5007314;28;20026;-62
2024/01/03 06:14:16;;;;;;;0.70;0.20;;;10.10;84.40;;;;;;5001495;28;20061;-62
2024/01/03 06:16:42;;;;;;;0.13;0.10;;;10.20;84.60;;;;;;5004867;28;20034;-62
2024/01/03 06:19:07;;;;;;;1.50;0.38;;;10.20;84.70;;;;;;5002134;28;20038;-62
2024/01/03 06:21:33;;;;;;;0.40;0.20;;;10.10;84.80;;;;;;4998006;28;20030;-62
2024/01/03 06:23:59;;;;;;;1.17;0.20;;;10.10;84.90;;;;;;4999977;28;20038;-61
2024/01/03 06:26:29;;;;;;;0.32;0.20;;;10.10;85.20;;;;;;5005894;28;20030;-60
2024/01/03 06:28:54;;;;;;;0.47;0.20;;;10.10;85.30;;;;;;5005435;28;20037;-62
2024/01/03 06:31:21;;;;;;;1.10;0.20;;;10.10;85.50;;;;;;5004721;28;20050;-62
2024/01/03 06:33:48;;;;;;;0.30;0.20;;;10.10;85.90;;;;;;4997887;28;20030;-63
2024/01/03 06:36:13;;;;;;;0.95;0.28;;;10.00;85.60;;;;;;4999915;28;20034;-63
2024/01/03 06:38:39;;;;;;;0.20;0.10;;;10.10;85.80;;;;;;4994718;28;20026;-63
2024/01/03 06:41:06;;;;;;;0.90;0.20;;;10.00;85.70;;;;;;5006158;28;20033;-62
2024/01/03 06:43:31;;;;;;;0.30;0.20;;;10.10;85.90;;;;;;5005589;28;20417;-62
2024/01/03 06:45:57;;;;;;;0.93;0.20;;;10.10;86.00;;;;;;5005993;28;20034;-62
2024/01/03 06:48:22;;;;;;;0.63;0.10;;;10.00;86.00;;;;;;5005377;28;20542;-63
2024/01/03 06:50:48;;;;;;;1.67;0.30;;;10.00;86.20;;;;;;4995615;28;20061;-62
2024/01/03 06:53:13;;;;;;;1.83;0.30;;;10.00;86.20;;;;;;5003992;28;20497;-62
2024/01/03 06:55:40;;;;;;;0.82;0.20;;;10.10;86.30;;;;;;4999330;28;20053;-63
2024/01/03 06:58:05;;;;;;;1.25;0.30;;;10.00;86.30;;;;;;5004983;28;20041;-62
2024/01/03 07:00:31;;;;;;;1.35;0.30;;;10.00;86.30;;;;;;5004763;28;20061;-62
2024/01/03 07:02:56;;;;;;;1.50;0.30;;;10.10;86.50;;;;;;5004086;28;20045;-63
2024/01/03 07:05:22;;;;;;;2.03;0.28;;;10.10;87.40;;;;;;4997834;28;20117;-62
2024/01/03 07:07:48;;;;;;;1.23;0.30;;;10.10;86.70;;;;;;5002799;28;20030;-62
2024/01/03 07:10:13;;;;;;;1.08;0.30;;;10.10;86.60;;;;;;5000630;28;20034;-63
2024/01/03 07:12:39;;;;;;;1.23;0.30;;;10.10;86.60;;;;;;5002520;28;20409;-63
2024/01/03 07:15:06;;;;;;;1.73;0.40;;;10.10;86.40;;;;;;4996689;28;20730;-62
2024/01/03 07:17:31;;;;;;;1.30;0.40;;;10.20;86.40;;;;;;4994002;28;20031;-63
2024/01/03 07:19:57;;;;;;;2.45;0.50;;;10.20;87.30;;;;;;5004992;28;20108;-63
2024/01/03 07:22:23;;;;;;;2.33;0.65;;;10.20;86.40;;;;;;5004460;28;20490;-62
2024/01/03 07:24:49;;;;;;;5.28;1.35;;;10.20;86.30;;;;;;5004545;28;20556;-62
2024/01/03 07:27:15;;;;;;;1.65;0.60;;;10.20;86.20;;;;;;5000322;28;20037;-61
2024/01/03 07:29:41;;;;;;;2.72;0.77;;;10.20;86.10;;;;;;5000386;28;20034;-62
2024/01/03 07:32:07;;;;;;;2.88;0.40;;;10.20;86.00;;;;;;5003431;28;20044;-63
2024/01/03 07:34:33;;;;;;;3.63;0.52;;;10.20;85.90;;;;;;5002340;28;20038;-60
2024/01/03 07:36:58;;;;;;;2.83;0.60;;;10.30;85.70;;;;;;5004438;28;20034;-62
2024/01/03 07:39:24;;;;;;;2.53;0.50;;;10.30;85.50;;;;;;4998081;28;20034;-63
2024/01/03 07:41:50;;;;;;;2.78;0.52;;;10.30;85.30;;;;;;4996357;28;20177;-62
2024/01/03 07:44:16;;;;;;;0.93;0.40;;;10.30;85.00;;;;;;5003207;28;20510;-62
2024/01/03 07:46:42;;;;;;;2.78;0.68;;;10.30;85.00;;;;;;5001090;28;20030;-62
2024/01/03 07:49:07;;;;;;;3.22;0.85;;;10.30;84.80;;;;;;5002493;28;20531;-62
2024/01/03 07:51:38;;;;;;;1.75;0.60;;;10.30;84.60;;;;;;5002669;28;20057;-62
2024/01/03 07:54:07;;;;;;;2.33;0.40;;;10.30;84.60;;;;;;5006685;28;20480;-62
2024/01/03 07:56:32;;;;;;;1.98;0.30;;;10.30;84.50;;;;;;5003781;28;20030;-63
2024/01/03 07:58:58;;;;;;;1.05;0.30;;;10.30;84.50;;;;;;5001820;28;20026;-62
2024/01/03 08:01:23;;;;;;;0.85;0.20;;;10.30;84.30;;;;;;4990386;28;20038;-62
2024/01/03 08:03:49;;;;;;;1.23;0.30;;;10.20;84.10;;;;;;4987922;28;20034;-61
2024/01/03 08:06:20;;;;;;;1.30;0.30;;;10.30;84.00;;;;;;4991115;28;20418;-63
2024/01/03 08:08:47;;;;;;;1.90;0.30;;;10.30;83.90;;;;;;4990781;28;20034;-62
2024/01/03 08:11:12;;;;;;;2.72;0.60;;;10.30;84.70;;;;;;4995614;28;20034;-61
2024/01/03 08:13:38;;;;;;;2.13;0.47;;;10.30;83.70;;;;;;4993837;28;20049;-62
2024/01/03 08:16:06;;;;;;;2.72;0.60;;;10.30;83.60;;;;;;4993665;28;20042;-63
2024/01/03 08:18:32;;;;;;;2.03;0.43;;;10.30;83.50;;;;;;5002829;28;20030;-63
2024/01/03 08:20:57;;;;;;;2.65;0.50;;;10.30;83.40;;;;;;4999725;28;20149;-62
2024/01/03 08:23:23;;;;;;;2.00;0.60;;;10.30;83.30;;;;;;4997090;28;20569;-63
2024/01/03 08:25:49;;;;;;;2.85;0.50;;;10.30;83.10;;;;;;4995419;28;20184;-63
2024/01/03 08:28:14;;;;;;;3.08;0.50;;;10.40;83.00;;;;;;4995040;28;20735;-63
2024/01/03 08:30:40;;;;;;;2.45;0.40;;;10.40;82.90;;;;;;4999925;28;20054;-62
2024/01/03 08:33:06;;;;;;;2.92;0.45;;;10.40;82.70;;;;;;4998888;28;20053;-62
2024/01/03 08:35:31;;;;;;;3.58;0.60;;;10.40;82.70;;;;;;4997210;28;20489;-62
2024/01/03 08:37:57;;;;;;;2.65;0.50;;;10.50;82.40;;;;;;4995499;28;20089;-62
2024/01/03 08:40:22;;;;;;;3.38;0.52;;;10.60;82.70;;;;;;4997217;28;20138;-61
2024/01/03 08:42:48;;;;;;;4.10;0.40;;;10.50;82.20;;;;;;4993150;28;20034;-63
2024/01/03 08:45:14;;;;;;;2.58;0.40;;;10.60;82.00;;;;;;4996266;28;20035;-62
2024/01/03 08:47:39;;;;;;;3.25;0.50;;;10.60;82.00;;;;;;4995700;28;20037;-63
2024/01/03 08:50:05;;;;;;;2.22;0.60;;;10.60;81.50;;;;;;4991516;28;20037;-63
2024/01/03 08:52:30;;;;;;;3.20;0.60;;;10.70;81.50;;;;;;4995241;28;20126;-61
2024/01/03 08:54:56;;;;;;;3.08;0.60;;;10.70;81.30;;;;;;5000842;28;20424;-61
2024/01/03 08:57:22;;;;;;;3.88;0.50;;;10.70;81.30;;;;;;4999715;28;20141;-62
2024/01/03 08:59:47;;;;;;;2.63;0.60;;;10.80;81.30;;;;;;4993742;28;20466;-63
2024/01/03 09:02:13;;;;;;;1.27;0.40;;;10.80;80.90;;;;;;4992758;28;20034;-62
2024/01/03 09:04:40;;;;;;;3.25;0.40;;;10.90;81.00;;;;;;4993945;28;20050;-61
2024/01/03 09:07:06;;;;;;;3.28;0.65;;;10.90;80.90;;;;;;5003036;28;20034;-62
2024/01/03 09:09:31;;;;;;;4.53;0.40;;;11.00;80.80;;;;;;5000192;28;20099;-62
2024/01/03 09:11:57;;;;;;;1.95;0.50;;;11.00;80.50;;;;;;5001448;28;20502;-62
2024/01/03 09:14:23;;;;;;;4.38;0.50;;;11.00;80.40;;;;;;5002700;28;20034;-64
2024/01/03 09:16:50;;;;;;;2.75;0.60;;;11.10;80.00;;;;;;5002778;28;20038;-65
2024/01/03 09:19:16;;;;;;;3.95;0.45;;;11.10;79.80;;;;;;5002735;28;20041;-63
2024/01/03 09:21:45;;;;;;;2.60;0.50;;;11.10;79.60;;;;;;4990967;28;20674;-62
2024/01/03 09:24:11;;;;;;;1.75;0.50;;;11.20;79.30;;;;;;4987002;28;20049;-62
2024/01/03 09:26:37;;;;;;;2.45;0.50;;;11.20;79.40;;;;;;4989088;28;20042;-63
2024/01/03 09:29:04;;;;;;;1.98;0.63;;;11.20;79.10;;;;;;4993735;28;20037;-64
2024/01/03 09:31:31;;;;;;;1.52;0.57;;;11.20;79.00;;;;;;4998417;28;20496;-63
2024/01/03 09:33:57;;;;;;;2.40;0.40;;;11.20;79.00;;;;;;4989770;28;20058;-64
2024/01/03 09:36:22;;;;;;;1.73;0.40;;;11.30;79.00;;;;;;4987770;28;20474;-61
2024/01/03 09:38:48;;;;;;;3.63;0.52;;;11.20;78.70;;;;;;4989177;28;20026;-63
2024/01/03 09:41:14;;;;;;;1.70;0.50;;;11.30;78.70;;;;;;4999312;28;20026;-61
2024/01/03 09:43:45;;;;;;;2.05;0.50;;;11.40;78.60;;;;;;5000252;28;20044;-60
2024/01/03 09:46:11;;;;;;;1.38;0.65;;;11.30;77.70;;;;;;5001078;28;20619;-62
2024/01/03 09:48:42;;;;;;;2.58;0.60;;;11.40;78.00;;;;;;5004303;28;20407;-64
2024/01/03 09:51:08;;;;;;;0.80;0.32;;;11.40;77.90;;;;;;5003027;28;20037;-61
2024/01/03 09:53:35;;;;;;;1.88;0.35;;;11.40;78.00;;;;;;4999297;28;20026;-60
2024/01/03 09:56:01;;;;;;;1.65;0.40;;;11.40;77.80;;;;;;4995441;28;20786;-61
2024/01/03 09:58:27;;;;;;;1.77;0.55;;;11.50;77.80;;;;;;5001967;28;20046;-60
2024/01/03 10:00:53;;;;;;;1.90;0.40;;;11.50;77.90;;;;;;5005557;28;20040;-61
2024/01/03 10:03:19;;;;;;;1.85;0.38;;;11.60;77.70;;;;;;5004883;28;20367;-61
2024/01/03 10:05:44;;;;;;;3.25;0.45;;;11.60;77.20;;;;;;5000774;28;20065;-61
2024/01/03 10:08:17;;;;;;;3.05;0.35;;;11.70;76.80;;;;;;5003444;28;20038;-63
2024/01/03 10:10:45;;;;;;;2.88;0.50;;;11.70;76.60;;;;;;5003431;28;20063;-63
2024/01/03 10:13:24;;;;;;;1.55;0.60;;;11.70;76.90;;;;;;5004958;28;20120;-63
2024/01/03 10:15:49;;;;;;;1.15;0.40;;;11.70;76.20;;;;;;5006999;28;20578;-62
2024/01/03 10:18:16;;;;;;;0.50;0.20;;;11.80;76.50;;;;;;5002820;28;20075;-63
2024/01/03 10:20:42;;;;;;;1.58;0.30;;;11.90;75.80;;;;;;5006580;28;20088;-61
2024/01/03 10:23:11;;;;;;;1.13;0.30;;;11.90;75.80;;;;;;5007886;28;20440;-63
2024/01/03 10:25:41;;;;;;;0.88;0.35;;;12.00;75.60;;;;;;5005493;28;20109;-63
2024/01/03 10:28:11;;;;;;;3.00;0.50;;;12.00;75.70;;;;;;5003764;28;20501;-64
2024/01/03 10:30:36;;;;;;;2.15;0.50;;;12.00;74.60;;;;;;4994025;28;20373;-63
2024/01/03 10:33:07;;;;;;;1.15;0.35;;;12.00;74.60;;;;;;4998956;28;20034;-64
2024/01/03 10:35:34;;;;;;;1.35;0.40;;;12.00;74.70;;;;;;4999478;28;20029;-64
2024/01/03 10:38:02;;;;;;;1.48;0.40;;;12.10;74.40;;;;;;5001959;28;20497;-62
2024/01/03 10:40:32;;;;;;;1.95;0.50;;;12.10;74.40;;;;;;5007831;28;20034;-61
2024/01/03 10:42:59;;;;;;;1.50;0.45;;;12.10;74.20;;;;;;5000653;28;20037;-64
2024/01/03 10:45:25;;;;;;;2.08;0.40;;;12.10;73.60;;;;;;5001259;28;20129;-62
2024/01/03 10:47:52;;;;;;;1.88;0.60;;;12.10;73.00;;;;;;4995362;28;20026;-61
2024/01/03 10:50:18;;;;;;;0.70;0.35;;;12.20;73.30;;;;;;4997018;28;20041;-61
2024/01/03 10:52:44;;;;;;;2.20;0.40;;;12.20;73.10;;;;;;5001589;28;20038;-63
2024/01/03 10:55:15;;;;;;;1.15;0.32;;;12.30;72.80;;;;;;5003840;28;20026;-63
2024/01/03 10:57:48;;;;;;;1.65;0.38;;;12.30;72.80;;;;;;5002416;28;20052;-60
2024/01/03 11:00:20;;;;;;;2.60;0.40;;;12.40;72.10;;;;;;5005200;28;20105;-62
2024/01/03 11:02:57;;;;;;;0.93;0.50;;;12.40;71.40;;;;;;5009493;28;20042;-64
2024/01/03 11:05:42;;;;;;;1.45;0.30;;;12.40;70.10;;;;;;5001335;28;20057;-62
2024/01/03 11:08:12;;;;;;;2.33;0.30;;;12.40;70.00;;;;;;4996981;28;20034;-63
2024/01/03 11:10:51;;;;;;;1.77;0.50;;;12.50;71.40;;;;;;5001355;28;20055;-63
2024/01/03 11:13:32;;;;;;;2.58;0.50;;;12.50;70.70;;;;;;5001828;28;20140;-62
2024/01/03 11:16:00;;;;;;;1.98;0.30;;;12.50;69.70;;;;;;5001296;28;20042;-63
2024/01/03 11:18:52;;;;;;;1.52;0.40;;;12.50;70.60;;;;;;5007552;28;20058;-62
2024/01/03 11:21:21;;;;;;;1.40;0.40;;;12.50;69.30;;;;;;5000894;28;20034;-63
2024/01/03 11:23:46;;;;;;;2.15;0.40;;;12.50;70.40;;;;;;5004381;28;20116;-64
2024/01/03 11:26:12;;;;;;;3.03;0.60;;;12.50;70.60;;;;;;5002457;28;20064;-62
2024/01/03 11:28:38;;;;;;;1.98;0.30;;;12.40;70.00;;;;;;5000163;28;20041;-61
2024/01/03 11:31:04;;;;;;;1.38;0.30;;;12.40;69.60;;;;;;5005551;28;20030;-63
2024/01/03 11:33:33;;;;;;;0.98;0.40;;;12.40;70.40;;;;;;5002393;28;20057;-60
2024/01/03 11:35:58;;;;;;;0.88;0.25;;;12.40;70.60;;;;;;5007722;28;20048;-61
2024/01/03 11:38:44;;;;;;;1.42;0.30;;;12.40;70.60;;;;;;5002398;28;20030;-62
2024/01/03 11:41:15;;;;;;;2.05;0.40;;;12.40;70.00;;;;;;5006213;28;20497;-62
2024/01/03 11:43:40;;;;;;;1.48;0.30;;;12.40;70.00;;;;;;5005921;28;20091;-63
2024/01/03 11:46:08;;;;;;;2.78;0.40;;;12.50;69.90;;;;;;4998484;28;20042;-64
2024/01/03 11:48:34;;;;;;;2.92;0.50;;;12.50;69.70;;;;;;5004475;28;20037;-62
2024/01/03 11:50:59;;;;;;;1.38;0.32;;;12.50;69.50;;;;;;5004149;28;20402;-65
2024/01/03 11:53:25;;;;;;;1.58;0.30;;;12.50;69.60;;;;;;5004174;28;20088;-62
2024/01/03 11:55:51;;;;;;;0.85;0.20;;;12.60;70.00;;;;;;5004679;28;20088;-63
2024/01/03 11:58:16;;;;;;;1.38;0.35;;;12.60;69.50;;;;;;5005634;28;20383;-61
2024/01/03 12:00:42;;;;;;;3.53;0.50;;;12.60;69.70;;;;;;5009777;28;20497;-61
2024/01/03 12:03:08;;;;;;;0.63;0.30;;;12.60;69.80;;;;;;5006429;28;20034;-63
2024/01/03 12:05:44;;;;;;;2.10;0.40;;;12.60;69.50;;;;;;5004762;28;20046;-64
2024/01/03 12:08:10;;;;;;;1.27;0.40;;;12.70;69.00;;;;;;5002243;28;20494;-62
2024/01/03 12:10:36;;;;;;;5.10;0.40;;;12.70;69.00;;;;;;5008441;28;20528;-63
2024/01/03 12:13:02;;;;;;;2.95;0.50;;;12.70;68.90;;;;;;5002913;28;20494;-65
2024/01/03 12:15:28;;;;;;;1.85;0.32;;;12.70;68.10;;;;;;5005633;28;20037;-63
2024/01/03 12:18:07;;;;;;;1.58;0.35;;;12.70;68.10;;;;;;5007488;28;20115;-62
2024/01/03 12:20:33;;;;;;;3.20;0.30;;;12.70;68.60;;;;;;5006232;28;20033;-62
2024/01/03 12:23:14;;;;;;;1.02;0.28;;;12.70;69.20;;;;;;4999051;28;20040;-63
2024/01/03 12:25:42;;;;;;;2.85;0.40;;;12.70;69.60;;;;;;5007334;28;20042;-63
2024/01/03 12:28:08;;;;;;;1.13;0.43;;;12.70;69.90;;;;;;4998436;28;20128;-63
2024/01/03 12:30:34;;;;;;;2.13;0.60;;;12.70;70.00;;;;;;5006501;28;20180;-61
2024/01/03 12:33:08;;;;;;;1.67;0.68;;;12.60;70.20;;;;;;5004187;28;20030;-60
2024/01/03 12:35:34;;;;;;;4.22;0.60;;;12.50;70.30;;;;;;4998867;28;20030;-60
2024/01/03 12:38:00;;;;;;;1.05;0.43;;;12.50;70.80;;;;;;5004915;28;20161;-61
2024/01/03 12:40:26;;;;;;;3.47;0.45;;;12.40;71.10;;;;;;5007677;28;20117;-63
2024/01/03 12:42:51;;;;;;;1.63;0.30;;;12.30;71.10;;;;;;5003354;28;20030;-59
2024/01/03 12:45:17;;;;;;;2.20;0.40;;;12.30;71.10;;;;;;5006237;28;20030;-61